createdAt,value
2022-10-28T00:01:15.937Z,9.30
2022-10-28T00:03:45.991Z,6.78
2022-10-28T00:06:17.563Z,6.93
2022-10-28T00:08:45.203Z,9.93
2022-10-28T00:11:21.803Z,7.47
2022-10-28T00:13:52.502Z,10.60
2022-10-28T00:16:23.546Z,5.55
2022-10-28T00:18:53.888Z,7.95
2022-10-28T00:21:30.191Z,9.38
2022-10-28T00:23:57.796Z,8.70
2022-10-28T00:26:30.623Z,13.07
2022-10-28T00:29:04.347Z,10.45
2022-10-28T00:31:33.443Z,9.63
2022-10-28T00:34:03.851Z,8.93
2022-10-28T00:36:34.462Z,7.43
2022-10-28T00:39:04.110Z,9.83
2022-10-28T00:41:35.196Z,7.97
2022-10-28T00:44:37.796Z,7.13
2022-10-28T00:47:17.635Z,6.30
2022-10-28T00:49:47.847Z,10.32
2022-10-28T00:52:24.367Z,8.67
2022-10-28T00:54:53.211Z,8.25
2022-10-28T00:57:25.109Z,6.22
2022-10-28T00:59:54.298Z,6.10
2022-10-28T01:02:21.992Z,6.88
2022-10-28T01:04:50.410Z,6.07
2022-10-28T01:07:17.976Z,6.88
2022-10-28T01:09:46.002Z,7.45
2022-10-28T01:12:32.204Z,11.32
2022-10-28T01:15:32.912Z,8.57
2022-10-28T01:18:09.258Z,7.20
2022-10-28T01:20:41.612Z,6.72
2022-10-28T01:23:43.662Z,6.85
2022-10-28T01:26:23.022Z,8.60
2022-10-28T01:29:11.093Z,7.25
2022-10-28T01:31:47.427Z,6.07
2022-10-28T01:34:48.762Z,7.40
2022-10-28T01:37:34.203Z,7.40
2022-10-28T01:40:16.063Z,5.40
2022-10-28T01:43:13.769Z,5.63
2022-10-28T01:45:52.047Z,8.17
2022-10-28T01:48:25.292Z,3.58
2022-10-28T01:50:59.108Z,7.70
2022-10-28T01:53:33.804Z,3.63
2022-10-28T01:56:07.511Z,8.40
2022-10-28T01:58:38.556Z,6.13
2022-10-28T02:01:09.261Z,6.55
2022-10-28T02:03:37.261Z,10.18
2022-10-28T02:06:07.918Z,6.57
2022-10-28T02:08:43.979Z,5.32
2022-10-28T02:11:14.416Z,7.83
2022-10-28T02:14:22.904Z,5.32
2022-10-28T02:16:58.484Z,6.18
2022-10-28T02:19:51.262Z,5.50
2022-10-28T02:22:23.876Z,5.63
2022-10-28T02:25:21.917Z,6.67
2022-10-28T02:27:55.818Z,8.45
2022-10-28T02:30:34.921Z,11.27
2022-10-28T02:33:07.027Z,7.35
2022-10-28T02:35:53.121Z,5.45
2022-10-28T02:38:27.964Z,7.20
2022-10-28T02:41:02.419Z,6.70
2022-10-28T02:43:35.267Z,5.68
2022-10-28T02:46:04.708Z,7.97
2022-10-28T02:48:39.884Z,8.18
2022-10-28T02:51:15.301Z,7.73
2022-10-28T02:54:19.102Z,6.00
2022-10-28T02:56:55.619Z,7.63
2022-10-28T02:59:25.049Z,7.95
2022-10-28T03:01:52.700Z,6.20
2022-10-28T03:04:20.311Z,5.70
2022-10-28T03:06:47.899Z,6.90
2022-10-28T03:09:15.392Z,7.38
2022-10-28T03:11:43.027Z,6.97
2022-10-28T03:14:13.215Z,7.82
2022-10-28T03:16:43.462Z,8.37
2022-10-28T03:19:10.946Z,8.02
2022-10-28T03:21:38.461Z,5.95
2022-10-28T03:24:06.280Z,5.20
2022-10-28T03:26:33.766Z,8.60
2022-10-28T03:29:01.285Z,3.90
2022-10-28T03:31:29.332Z,7.07
2022-10-28T03:33:56.839Z,6.63
2022-10-28T03:36:24.446Z,8.13
2022-10-28T03:38:51.989Z,7.25
2022-10-28T03:41:19.587Z,8.50
2022-10-28T03:43:47.028Z,6.28
2022-10-28T03:46:14.556Z,5.22
2022-10-28T03:48:42.021Z,6.28
2022-10-28T03:51:09.578Z,3.95
2022-10-28T03:53:37.116Z,13.13
2022-10-28T03:56:05.264Z,8.00
2022-10-28T03:58:36.045Z,5.90
2022-10-28T04:01:05.678Z,6.97
2022-10-28T04:03:33.175Z,8.55
2022-10-28T04:06:00.676Z,5.03
2022-10-28T04:08:28.195Z,6.28
2022-10-28T04:10:55.692Z,5.03
2022-10-28T04:13:23.121Z,5.45
2022-10-28T04:15:50.633Z,7.38
2022-10-28T04:18:18.104Z,6.00
2022-10-28T04:20:46.571Z,6.68
2022-10-28T04:23:17.066Z,6.97
2022-10-28T04:25:45.079Z,8.05
2022-10-28T04:28:12.576Z,8.82
2022-10-28T04:30:40.086Z,7.77
2022-10-28T04:33:07.611Z,8.82
2022-10-28T04:35:35.162Z,6.78
2022-10-28T04:38:02.811Z,7.22
2022-10-28T04:40:30.423Z,6.28
2022-10-28T04:42:57.851Z,6.67
2022-10-28T04:45:25.419Z,7.22
2022-10-28T04:48:01.896Z,6.00
2022-10-28T04:50:29.523Z,7.80
2022-10-28T04:52:57.030Z,6.63
2022-10-28T04:55:24.619Z,8.60
2022-10-28T04:57:59.927Z,6.40
2022-10-28T05:00:28.940Z,5.10
2022-10-28T05:02:57.358Z,7.93
2022-10-28T05:05:25.976Z,6.90
2022-10-28T05:07:53.659Z,14.40
2022-10-28T05:10:21.437Z,9.23
2022-10-28T05:12:49.083Z,8.43
2022-10-28T05:15:17.042Z,6.55
2022-10-28T05:17:46.398Z,7.10
2022-10-28T05:20:16.373Z,5.63
2022-10-28T05:22:49.122Z,8.90
2022-10-28T05:25:17.712Z,9.98
2022-10-28T05:27:45.764Z,6.93
2022-10-28T05:30:14.342Z,7.97
2022-10-28T05:32:41.934Z,7.27
2022-10-28T05:35:10.061Z,8.80
2022-10-28T05:37:38.028Z,8.10
2022-10-28T05:40:06.283Z,8.10
2022-10-28T05:42:33.720Z,7.68
2022-10-28T05:45:01.230Z,4.70
2022-10-28T05:47:28.689Z,6.90
2022-10-28T05:49:56.236Z,7.40
2022-10-28T05:52:23.755Z,5.40
2022-10-28T05:54:51.265Z,5.53
2022-10-28T05:57:18.740Z,6.83
2022-10-28T05:59:46.233Z,4.18
2022-10-28T06:02:15.212Z,7.30
2022-10-28T06:04:42.744Z,6.32
2022-10-28T06:07:10.197Z,7.55
2022-10-28T06:09:37.758Z,8.40
2022-10-28T06:12:05.307Z,7.40
2022-10-28T06:14:33.005Z,6.07
2022-10-28T06:17:00.730Z,8.55
2022-10-28T06:19:28.273Z,5.15
2022-10-28T06:21:55.729Z,7.20
2022-10-28T06:24:23.240Z,4.82
2022-10-28T06:26:50.826Z,9.75
2022-10-28T06:29:19.067Z,6.05
2022-10-28T06:31:46.599Z,6.10
2022-10-28T06:34:14.104Z,5.17
2022-10-28T06:36:41.991Z,6.38
2022-10-28T06:39:09.604Z,4.65
2022-10-28T06:41:37.187Z,5.25
2022-10-28T06:44:04.831Z,8.13
2022-10-28T06:46:34.040Z,6.50
2022-10-28T06:49:04.806Z,6.85
2022-10-28T06:51:32.664Z,9.30
2022-10-28T06:54:00.393Z,6.97
2022-10-28T06:56:27.943Z,6.90
2022-10-28T06:58:55.660Z,10.77
2022-10-28T07:01:23.272Z,8.10
2022-10-28T07:03:50.823Z,6.35
2022-10-28T07:06:18.401Z,3.90
2022-10-28T07:08:45.959Z,6.60
2022-10-28T07:11:14.173Z,5.23
2022-10-28T07:13:42.512Z,5.95
2022-10-28T07:16:11.871Z,6.75
2022-10-28T07:18:39.481Z,7.35
2022-10-28T07:21:07.109Z,9.57
2022-10-28T07:23:35.055Z,5.67
2022-10-28T07:26:02.594Z,4.85
2022-10-28T07:28:30.834Z,3.83
2022-10-28T07:31:02.709Z,6.50
2022-10-28T07:33:30.513Z,4.72
2022-10-28T07:35:58.040Z,7.77
2022-10-28T07:38:26.547Z,6.13
2022-10-28T07:40:54.168Z,6.15
2022-10-28T07:43:21.775Z,6.03
2022-10-28T07:45:55.379Z,5.72
2022-10-28T07:48:23.245Z,6.30
2022-10-28T07:50:50.806Z,6.82
2022-10-28T07:53:18.374Z,5.43
2022-10-28T07:55:45.918Z,4.38
2022-10-28T07:58:13.403Z,7.72
2022-10-28T08:00:41.011Z,4.73
2022-10-28T08:03:08.734Z,3.75
2022-10-28T08:05:36.207Z,5.07
2022-10-28T08:08:03.785Z,4.38
2022-10-28T08:10:31.291Z,3.88
2022-10-28T08:13:00.855Z,3.93
2022-10-28T08:15:29.907Z,5.07
2022-10-28T08:17:57.602Z,4.93
2022-10-28T08:20:25.262Z,7.93
2022-10-28T08:22:53.075Z,5.18
2022-10-28T08:25:20.840Z,6.27
2022-10-28T08:30:15.989Z,5.95
2022-10-28T08:32:43.472Z,4.65
2022-10-28T08:35:11.018Z,5.25
2022-10-28T08:37:38.549Z,7.53
2022-10-28T08:40:06.888Z,5.40
2022-10-28T08:42:57.528Z,3.75
2022-10-28T08:45:53.200Z,10.13
2022-10-28T08:48:26.425Z,7.18
2022-10-28T08:51:09.654Z,9.73
2022-10-28T08:54:03.918Z,6.95
2022-10-28T08:56:46.296Z,6.03
2022-10-28T08:59:19.092Z,8.73
2022-10-28T09:01:49.200Z,11.05
2022-10-28T09:04:23.120Z,9.90
2022-10-28T09:06:50.706Z,10.50
2022-10-28T09:09:21.885Z,9.95
2022-10-28T09:12:05.496Z,5.47
2022-10-28T09:15:02.061Z,4.55
2022-10-28T09:17:32.618Z,3.97
2022-10-28T09:20:05.642Z,4.50
2022-10-28T09:22:45.351Z,6.68
2022-10-28T09:25:21.967Z,6.07
2022-10-28T09:27:55.577Z,3.75
2022-10-28T09:30:38.837Z,5.83
2022-10-28T09:33:41.661Z,7.13
2022-10-28T09:36:17.012Z,16.63
2022-10-28T09:38:45.733Z,3.25
2022-10-28T09:41:27.838Z,3.05
2022-10-28T09:44:05.135Z,2.80
2022-10-28T09:46:36.233Z,3.83
2022-10-28T09:49:11.165Z,6.13
2022-10-28T09:51:49.967Z,3.45
2022-10-28T09:54:19.625Z,3.20
2022-10-28T09:56:47.174Z,3.23
2022-10-28T09:59:16.519Z,7.65
2022-10-28T10:01:46.775Z,2.80
2022-10-28T10:04:21.010Z,7.68
2022-10-28T10:07:01.050Z,5.63
2022-10-28T10:09:31.456Z,12.00
2022-10-28T10:12:13.419Z,2.78
2022-10-28T10:14:46.044Z,4.13
2022-10-28T10:17:45.911Z,7.45
2022-10-28T10:20:19.054Z,4.30
2022-10-28T10:22:49.052Z,8.47
2022-10-28T10:25:19.276Z,11.93
2022-10-28T10:27:51.710Z,10.30
2022-10-28T10:30:24.385Z,9.25
2022-10-28T10:32:52.775Z,6.50
2022-10-28T10:35:25.260Z,4.43
2022-10-28T10:37:55.953Z,7.10
2022-10-28T10:40:34.002Z,6.75
2022-10-28T10:43:30.900Z,8.23
2022-10-28T10:46:08.120Z,8.30
2022-10-28T10:48:36.741Z,12.33
2022-10-28T10:51:12.575Z,13.00
2022-10-28T10:53:40.812Z,10.70
2022-10-28T10:56:11.159Z,10.38
2022-10-28T10:58:47.301Z,8.23
2022-10-28T11:01:21.080Z,13.00
2022-10-28T11:03:54.227Z,6.78
2022-10-28T11:06:26.833Z,5.25
2022-10-28T11:09:03.986Z,9.25
2022-10-28T11:11:37.457Z,6.25
2022-10-28T11:14:11.043Z,6.93
2022-10-28T11:16:53.509Z,7.63
2022-10-28T11:19:24.649Z,9.95
2022-10-28T11:22:08.400Z,6.55
2022-10-28T11:24:45.099Z,8.13
2022-10-28T11:27:39.228Z,5.87
2022-10-28T11:30:13.973Z,6.03
2022-10-28T11:33:28.657Z,8.50
2022-10-28T11:36:11.668Z,10.68
2022-10-28T11:38:59.592Z,5.28
2022-10-28T11:41:51.937Z,4.27
2022-10-28T11:44:52.951Z,3.38
2022-10-28T11:47:41.115Z,2.97
2022-10-28T11:50:58.570Z,4.18
2022-10-28T11:53:37.325Z,6.75
2022-10-28T11:56:23.305Z,4.43
2022-10-28T11:58:56.777Z,5.38
2022-10-28T12:01:45.961Z,3.25
2022-10-28T12:04:51.556Z,4.43
2022-10-28T12:07:59.819Z,4.18
2022-10-28T12:10:42.548Z,4.63
2022-10-28T12:13:28.920Z,7.53
2022-10-28T12:16:07.517Z,4.15
2022-10-28T12:18:49.274Z,3.03
2022-10-28T12:24:09.672Z,3.40
2022-10-28T12:26:59.437Z,5.30
2022-10-28T12:29:38.816Z,3.95
2022-10-28T12:32:13.318Z,8.25
2022-10-28T12:34:49.294Z,5.13
2022-10-28T12:37:22.157Z,6.17
2022-10-28T12:40:04.868Z,5.90
2022-10-28T12:42:38.936Z,3.58
2022-10-28T12:45:12.078Z,4.20
2022-10-28T12:47:45.793Z,3.35
2022-10-28T12:50:17.613Z,4.30
2022-10-28T12:53:14.405Z,4.47
2022-10-28T12:55:51.505Z,4.85
2022-10-28T12:58:58.189Z,5.90
2022-10-28T13:01:31.078Z,8.20
2022-10-28T13:03:58.881Z,2.77
2022-10-28T13:06:29.661Z,2.78
2022-10-28T13:09:32.189Z,3.58
2022-10-28T13:12:27.006Z,5.00
2022-10-28T13:17:52.475Z,4.83
2022-10-28T13:20:28.389Z,8.68
2022-10-28T13:23:31.251Z,5.78
2022-10-28T13:26:39.847Z,2.72
2022-10-28T13:29:18.363Z,2.75
2022-10-28T13:31:47.987Z,4.03
2022-10-28T13:34:18.886Z,4.47
2022-10-28T13:36:57.524Z,7.25
2022-10-28T13:39:28.205Z,5.20
2022-10-28T13:42:14.940Z,10.75
2022-10-28T13:44:50.146Z,6.73
2022-10-28T13:47:17.702Z,4.75
2022-10-28T13:50:33.102Z,5.25
2022-10-28T13:53:25.595Z,7.20
2022-10-28T13:55:58.116Z,4.35
2022-10-28T13:58:26.895Z,3.50
2022-10-28T14:00:55.109Z,5.43
2022-10-28T14:03:26.012Z,5.47
2022-10-28T14:05:57.672Z,4.82
2022-10-28T14:08:29.587Z,5.30
2022-10-28T14:11:05.993Z,4.10
2022-10-28T14:13:47.939Z,5.88
2022-10-28T14:16:39.379Z,6.82
2022-10-28T14:19:06.881Z,4.07
2022-10-28T14:22:01.976Z,4.05
2022-10-28T14:24:40.838Z,4.60
2022-10-28T14:27:08.432Z,6.40
2022-10-28T14:29:48.554Z,4.93
2022-10-28T14:32:31.172Z,7.63
2022-10-28T14:35:10.709Z,2.92
2022-10-28T14:38:10.650Z,5.40
2022-10-28T14:40:54.160Z,6.60
2022-10-28T14:43:40.296Z,4.60
2022-10-28T14:46:34.213Z,7.10
2022-10-28T14:49:03.849Z,6.40
2022-10-28T14:51:39.613Z,5.80
2022-10-28T14:54:13.572Z,6.28
2022-10-28T14:56:41.452Z,7.68
2022-10-28T14:59:26.124Z,5.93
2022-10-28T15:01:59.726Z,6.68
2022-10-28T15:04:29.112Z,8.50
2022-10-28T15:06:57.474Z,8.48
2022-10-28T15:09:29.621Z,8.07
2022-10-28T15:12:01.082Z,5.22
2022-10-28T15:14:41.902Z,4.68
2022-10-28T15:17:17.090Z,6.00
2022-10-28T15:19:47.103Z,4.47
2022-10-28T15:22:20.769Z,7.78
2022-10-28T15:25:08.249Z,6.10
2022-10-28T15:27:38.270Z,4.43
2022-10-28T15:30:26.566Z,4.43
2022-10-28T15:32:55.720Z,9.10
2022-10-28T15:35:38.414Z,4.05
2022-10-28T15:38:21.338Z,6.93
2022-10-28T15:40:50.178Z,7.30
2022-10-28T15:43:21.098Z,7.93
2022-10-28T15:45:48.727Z,6.47
2022-10-28T15:48:23.730Z,7.05
2022-10-28T15:51:11.012Z,5.00
2022-10-28T15:53:40.617Z,7.22
2022-10-28T15:56:13.911Z,7.77
2022-10-28T15:58:43.461Z,8.52
2022-10-28T16:01:40.658Z,8.73
2022-10-28T16:04:23.355Z,8.30
2022-10-28T16:06:53.348Z,10.35
2022-10-28T16:09:34.141Z,11.27
2022-10-28T16:12:23.704Z,7.32
2022-10-28T16:15:00.734Z,8.10
2022-10-28T16:17:36.277Z,9.63
2022-10-28T16:20:17.222Z,8.45
2022-10-28T16:22:46.726Z,8.30
2022-10-28T16:25:17.578Z,6.38
2022-10-28T16:27:45.059Z,9.80
2022-10-28T16:30:13.101Z,9.25
2022-10-28T16:32:44.441Z,6.70
2022-10-28T16:35:22.655Z,15.83
2022-10-28T16:37:55.146Z,19.08
2022-10-28T16:43:22.629Z,12.43
2022-10-28T16:45:52.443Z,9.75
2022-10-28T16:48:22.659Z,13.20
2022-10-28T16:51:02.583Z,15.73
2022-10-28T16:53:32.099Z,13.40
2022-10-28T16:55:59.662Z,12.70
2022-10-28T16:58:28.804Z,11.65
2022-10-28T17:00:57.114Z,14.77
2022-10-28T17:03:24.628Z,6.72
2022-10-28T17:05:52.202Z,10.40
2022-10-28T17:08:36.236Z,10.20
2022-10-28T17:11:07.474Z,8.90
2022-10-28T17:13:35.036Z,10.73
2022-10-28T17:16:02.617Z,11.68
2022-10-28T17:18:30.765Z,11.38
2022-10-28T17:21:02.455Z,16.33
2022-10-28T17:23:30.548Z,9.07
2022-10-28T17:26:00.867Z,9.30
2022-10-28T17:28:28.826Z,9.35
2022-10-28T17:31:07.714Z,10.63
2022-10-28T17:33:35.346Z,13.90
2022-10-28T17:36:10.586Z,11.48
2022-10-28T17:38:38.355Z,10.53
2022-10-28T17:41:06.000Z,13.30
2022-10-28T17:43:33.628Z,11.32
2022-10-28T17:46:05.747Z,14.90
2022-10-28T17:48:34.231Z,9.15
2022-10-28T17:51:01.822Z,15.67
2022-10-28T17:53:29.448Z,13.77
2022-10-28T17:56:01.749Z,13.63
2022-10-28T17:58:29.523Z,11.95
2022-10-28T18:01:02.209Z,14.65
2022-10-28T18:03:33.990Z,7.67
2022-10-28T18:06:07.349Z,14.23
2022-10-28T18:08:39.142Z,16.17
2022-10-28T18:11:08.746Z,13.05
2022-10-28T18:13:39.107Z,14.90
2022-10-28T18:16:09.550Z,11.90
2022-10-28T18:18:42.031Z,13.52
2022-10-28T18:21:14.161Z,13.85
2022-10-28T18:23:41.869Z,16.30
2022-10-28T18:26:14.958Z,17.08
2022-10-28T18:28:43.827Z,12.83
2022-10-28T18:31:12.438Z,13.73
2022-10-28T18:33:41.167Z,13.43
2022-10-28T18:36:13.709Z,14.05
2022-10-28T18:38:41.708Z,13.57
2022-10-28T18:41:14.979Z,12.57
2022-10-28T18:43:42.578Z,11.85
2022-10-28T18:46:11.377Z,16.42
2022-10-28T18:48:39.991Z,16.38
2022-10-28T18:51:10.894Z,13.35
2022-10-28T18:53:44.142Z,15.63
2022-10-28T18:56:23.405Z,15.68
2022-10-28T18:58:52.389Z,15.05
2022-10-28T19:01:23.313Z,24.90
2022-10-28T19:03:52.998Z,17.02
2022-10-28T19:06:21.718Z,18.40
2022-10-28T19:08:54.045Z,21.05
2022-10-28T19:11:23.274Z,17.05
2022-10-28T19:13:50.823Z,15.15
2022-10-28T19:16:18.881Z,23.52
2022-10-28T19:18:46.424Z,16.03
2022-10-28T19:21:16.503Z,17.90
2022-10-28T19:23:44.099Z,18.05
2022-10-28T19:26:13.787Z,20.77
2022-10-28T19:28:46.777Z,21.90
2022-10-28T19:31:17.599Z,16.50
2022-10-28T19:33:45.644Z,18.77
2022-10-28T19:36:23.444Z,17.23
2022-10-28T19:38:55.098Z,14.90
2022-10-28T19:41:25.171Z,16.17
2022-10-28T19:43:58.918Z,16.03
2022-10-28T19:46:29.093Z,21.90
2022-10-28T19:48:59.530Z,18.75
2022-10-28T19:51:30.007Z,14.30
2022-10-28T19:54:05.712Z,16.90
2022-10-28T19:56:35.160Z,20.83
2022-10-28T19:59:04.409Z,17.50
2022-10-28T20:01:34.291Z,16.95
2022-10-28T20:04:02.207Z,21.58
2022-10-28T20:06:35.810Z,20.10
2022-10-28T20:09:04.240Z,19.00
2022-10-28T20:11:34.109Z,18.52
2022-10-28T20:14:11.740Z,22.63
2022-10-28T20:16:42.709Z,20.25
2022-10-28T20:19:10.722Z,20.30
2022-10-28T20:21:38.898Z,17.80
2022-10-28T20:24:07.557Z,21.30
2022-10-28T20:26:36.997Z,13.50
2022-10-28T20:29:06.867Z,21.63
2022-10-28T20:31:34.919Z,19.20
2022-10-28T20:34:04.088Z,17.93
2022-10-28T20:36:33.707Z,18.40
2022-10-28T20:39:02.347Z,20.52
2022-10-28T20:41:33.037Z,15.35
2022-10-28T20:44:01.633Z,23.13
2022-10-28T20:46:29.522Z,23.17
2022-10-28T20:48:57.334Z,15.73
2022-10-28T20:51:27.150Z,20.70
2022-10-28T20:53:55.592Z,23.63
2022-10-28T20:56:29.359Z,19.77
2022-10-28T20:58:57.968Z,24.70
2022-10-28T21:01:28.558Z,17.80
2022-10-28T21:03:58.701Z,17.40
2022-10-28T21:06:27.315Z,17.85
2022-10-28T21:08:55.171Z,15.73
2022-10-28T21:11:23.795Z,21.53
2022-10-28T21:13:53.521Z,20.05
2022-10-28T21:16:21.949Z,25.33
2022-10-28T21:18:49.932Z,15.02
2022-10-28T21:21:19.356Z,21.70
2022-10-28T21:23:46.957Z,20.43
2022-10-28T21:26:14.669Z,16.65
2022-10-28T21:28:42.401Z,24.40
2022-10-28T21:31:12.746Z,24.10
2022-10-28T21:33:41.805Z,20.45
2022-10-28T21:36:14.873Z,23.33
2022-10-28T21:38:42.877Z,20.67
2022-10-28T21:41:16.592Z,18.05
2022-10-28T21:43:47.873Z,20.85
2022-10-28T21:46:16.650Z,27.63
2022-10-28T21:48:44.585Z,20.07
2022-10-28T21:51:15.211Z,24.20
2022-10-28T21:53:44.682Z,16.77
2022-10-28T21:56:17.681Z,20.35
2022-10-28T21:58:48.261Z,14.15
2022-10-28T22:01:23.891Z,21.00
2022-10-28T22:03:54.704Z,27.30
2022-10-28T22:06:23.023Z,23.20
2022-10-28T22:08:54.908Z,20.40
2022-10-28T22:11:23.941Z,15.50
2022-10-28T22:14:00.392Z,18.93
2022-10-28T22:16:29.750Z,15.60
2022-10-28T22:19:04.125Z,20.10
2022-10-28T22:21:35.559Z,20.90
2022-10-28T22:24:03.176Z,20.13
2022-10-28T22:26:31.977Z,24.00
2022-10-28T22:29:00.420Z,22.55
2022-10-28T22:31:32.606Z,23.67
2022-10-28T22:34:00.778Z,23.17
2022-10-28T22:36:29.753Z,17.15
2022-10-28T22:38:57.711Z,16.07
2022-10-28T22:41:28.431Z,20.88
2022-10-28T22:43:58.438Z,18.02
2022-10-28T22:46:28.616Z,18.35
2022-10-28T22:48:56.852Z,25.85
2022-10-28T22:51:24.515Z,15.77
2022-10-28T22:53:52.075Z,29.40
2022-10-28T22:56:21.895Z,20.33
2022-10-28T22:58:54.096Z,17.60
2022-10-28T23:01:22.907Z,21.95
2022-10-28T23:03:52.211Z,19.80
2022-10-28T23:06:22.960Z,20.95
2022-10-28T23:08:50.597Z,19.85
2022-10-28T23:11:19.993Z,18.65
2022-10-28T23:13:52.489Z,20.95
2022-10-28T23:16:20.869Z,20.57
2022-10-28T23:18:48.899Z,14.38
2022-10-28T23:21:22.133Z,25.55
2022-10-28T23:23:56.828Z,21.10
2022-10-28T23:26:26.042Z,19.17
2022-10-28T23:28:55.602Z,18.77
2022-10-28T23:31:24.242Z,21.35
2022-10-28T23:33:53.935Z,18.00
2022-10-28T23:36:22.015Z,24.45
2022-10-28T23:38:49.514Z,18.10
2022-10-28T23:41:18.904Z,18.80
2022-10-28T23:43:47.391Z,19.88
2022-10-28T23:46:15.010Z,19.45
2022-10-28T23:48:42.724Z,23.88
2022-10-28T23:51:10.248Z,27.60
2022-10-28T23:53:38.057Z,14.83
2022-10-28T23:56:06.307Z,20.63
2022-10-28T23:58:33.912Z,20.67
